createdAt,value
2023-05-01T00:02:52.483Z,78.73
2023-05-01T00:06:08.318Z,79.50
2023-05-01T00:09:11.285Z,79.75
2023-05-01T00:12:14.734Z,80.37
2023-05-01T00:15:17.515Z,80.49
2023-05-01T00:18:20.252Z,80.96
2023-05-01T00:21:23.078Z,80.72
2023-05-01T00:24:26.000Z,80.44
2023-05-01T00:27:28.805Z,81.04
2023-05-01T00:30:33.628Z,81.16
2023-05-01T00:33:36.455Z,80.56
2023-05-01T00:36:39.541Z,79.94
2023-05-01T00:39:42.441Z,79.33
2023-05-01T00:42:45.721Z,79.32
2023-05-01T00:45:49.001Z,78.81
2023-05-01T00:51:56.238Z,78.32
2023-05-01T00:54:59.428Z,78.08
2023-05-01T00:58:02.677Z,78.13
2023-05-01T01:01:05.591Z,77.24
2023-05-01T01:04:08.952Z,77.79
2023-05-01T01:07:36.193Z,77.47
2023-05-01T01:11:15.694Z,78.10
2023-05-01T01:14:43.342Z,78.77
2023-05-01T01:17:57.570Z,78.77
2023-05-01T01:21:07.062Z,79.29
2023-05-01T01:24:34.357Z,79.11
2023-05-01T01:27:58.872Z,77.84
2023-05-01T01:31:17.640Z,78.34
2023-05-01T01:34:33.679Z,77.83
2023-05-01T01:37:44.729Z,78.28
2023-05-01T01:40:58.711Z,77.86
2023-05-01T01:44:12.500Z,76.98
2023-05-01T01:47:17.111Z,77.57
2023-05-01T01:50:24.878Z,77.02
2023-05-01T01:53:31.424Z,77.66
2023-05-01T01:56:36.510Z,77.12
2023-05-01T01:59:42.346Z,77.31
2023-05-01T02:02:47.345Z,77.15
2023-05-01T02:05:52.374Z,77.40
2023-05-01T02:08:57.309Z,77.74
2023-05-01T02:12:02.943Z,77.88
2023-05-01T02:15:08.245Z,77.47
2023-05-01T02:18:12.893Z,76.83
2023-05-01T02:21:16.825Z,76.35
2023-05-01T02:24:22.869Z,76.13
2023-05-01T02:27:32.486Z,76.59
2023-05-01T02:30:36.616Z,75.95
2023-05-01T02:33:39.414Z,76.23
2023-05-01T02:36:42.795Z,75.27
2023-05-01T02:39:46.070Z,74.78
2023-05-01T02:42:52.105Z,75.29
2023-05-01T02:45:59.212Z,75.33
2023-05-01T02:49:03.914Z,75.32
2023-05-01T02:52:07.920Z,75.46
2023-05-01T02:55:11.637Z,75.80
2023-05-01T02:58:18.302Z,76.23
2023-05-01T03:01:21.521Z,76.24
2023-05-01T03:04:24.645Z,77.49
2023-05-01T03:07:35.089Z,77.14
2023-05-01T03:10:42.676Z,76.78
2023-05-01T03:13:46.523Z,75.63
2023-05-01T03:16:49.546Z,74.91
2023-05-01T03:19:52.606Z,74.60
2023-05-01T03:22:55.921Z,74.91
2023-05-01T03:25:59.629Z,74.08
2023-05-01T03:29:02.615Z,73.92
2023-05-01T03:32:06.680Z,73.28
2023-05-01T03:35:10.054Z,73.13
2023-05-01T03:38:13.625Z,73.00
2023-05-01T03:41:39.678Z,72.90
2023-05-01T03:45:03.246Z,72.95
2023-05-01T03:48:06.605Z,72.14
2023-05-01T03:51:09.515Z,71.18
2023-05-01T03:54:13.173Z,71.44
2023-05-01T03:57:37.246Z,71.79
2023-05-01T04:00:40.196Z,70.74
2023-05-01T04:03:43.161Z,70.25
2023-05-01T04:06:46.240Z,69.46
2023-05-01T04:09:49.267Z,69.60
2023-05-01T04:12:52.086Z,68.01
2023-05-01T04:15:56.296Z,67.87
2023-05-01T04:18:59.913Z,66.47
2023-05-01T04:22:02.776Z,66.83
2023-05-01T04:25:07.925Z,66.74
2023-05-01T04:28:12.718Z,65.89
2023-05-01T04:31:15.974Z,66.28
2023-05-01T04:34:19.762Z,65.19
2023-05-01T04:37:22.620Z,65.36
2023-05-01T04:40:25.618Z,64.15
2023-05-01T04:43:28.562Z,61.99
2023-05-01T04:46:31.707Z,59.74
2023-05-01T04:49:40.135Z,59.72
2023-05-01T04:52:43.071Z,58.67
2023-05-01T04:55:45.881Z,57.63
2023-05-01T04:58:51.077Z,56.04
2023-05-01T05:01:57.796Z,56.04
2023-05-01T05:05:00.995Z,54.01
2023-05-01T05:08:04.560Z,55.29
2023-05-01T05:11:12.220Z,56.51
2023-05-01T05:14:33.724Z,56.96
2023-05-01T05:17:36.867Z,57.81
2023-05-01T05:20:40.178Z,58.35
2023-05-01T05:23:42.992Z,57.55
2023-05-01T05:26:45.934Z,57.61
2023-05-01T05:29:48.812Z,57.34
2023-05-01T05:32:51.729Z,55.83
2023-05-01T05:35:56.200Z,54.92
2023-05-01T05:39:03.663Z,55.49
2023-05-01T05:42:06.729Z,53.80
2023-05-01T05:45:10.530Z,52.96
2023-05-01T05:48:13.616Z,53.75
2023-05-01T05:51:17.407Z,54.70
2023-05-01T05:54:20.207Z,53.94
2023-05-01T05:57:24.976Z,53.75
2023-05-01T06:00:28.239Z,53.60
2023-05-01T06:03:32.304Z,53.55
2023-05-01T06:06:37.757Z,51.97
2023-05-01T06:09:41.713Z,51.62
2023-05-01T06:12:48.312Z,53.66
2023-05-01T06:16:04.712Z,53.99
2023-05-01T06:19:08.010Z,54.59
2023-05-01T06:22:11.449Z,54.45
2023-05-01T06:25:24.611Z,53.98
2023-05-01T06:28:27.683Z,54.43
2023-05-01T06:31:31.133Z,53.57
2023-05-01T06:34:34.746Z,55.19
2023-05-01T06:37:38.662Z,53.53
2023-05-01T06:40:43.237Z,53.32
2023-05-01T06:43:46.251Z,53.60
2023-05-01T06:46:49.136Z,52.74
2023-05-01T06:49:51.945Z,50.80
2023-05-01T06:52:54.744Z,49.46
2023-05-01T06:55:57.636Z,47.25
2023-05-01T06:59:00.698Z,47.06
2023-05-01T07:02:04.517Z,46.14
2023-05-01T07:05:07.723Z,45.06
2023-05-01T07:08:10.625Z,43.95
2023-05-01T07:11:13.423Z,46.17
2023-05-01T07:14:16.735Z,44.07
2023-05-01T07:17:20.052Z,45.80
2023-05-01T07:20:23.119Z,43.40
2023-05-01T07:23:26.434Z,41.92
2023-05-01T07:26:29.569Z,41.29
2023-05-01T07:29:32.449Z,42.32
2023-05-01T07:32:35.266Z,42.49
2023-05-01T07:35:38.200Z,42.05
2023-05-01T07:38:41.457Z,38.20
2023-05-01T07:41:47.970Z,37.55
2023-05-01T07:45:00.406Z,36.26
2023-05-01T07:48:03.617Z,37.56
2023-05-01T07:51:06.531Z,37.36
2023-05-01T07:54:09.505Z,35.86
2023-05-01T07:57:12.494Z,36.41
2023-05-01T08:00:15.879Z,35.29
2023-05-01T08:03:18.777Z,40.13
2023-05-01T08:06:21.783Z,38.55
2023-05-01T08:09:25.056Z,35.05
2023-05-01T08:12:29.230Z,33.83
2023-05-01T08:15:31.955Z,34.88
2023-05-01T08:18:34.815Z,33.07
2023-05-01T08:21:37.733Z,32.35
2023-05-01T08:24:42.872Z,34.39
2023-05-01T08:27:45.666Z,32.63
2023-05-01T08:30:51.678Z,31.94
2023-05-01T08:33:54.595Z,33.08
2023-05-01T08:36:57.602Z,32.60
2023-05-01T08:40:00.493Z,34.60
2023-05-01T08:43:06.458Z,33.30
2023-05-01T08:46:13.806Z,30.25
2023-05-01T08:49:18.843Z,28.82
2023-05-01T08:52:23.332Z,30.29
2023-05-01T08:55:28.071Z,28.56
2023-05-01T08:58:34.491Z,27.63
2023-05-01T09:01:38.695Z,30.10
2023-05-01T09:04:42.152Z,32.22
2023-05-01T09:07:46.748Z,30.06
2023-05-01T09:10:52.372Z,28.68
2023-05-01T09:13:55.791Z,29.39
2023-05-01T09:16:58.749Z,31.89
2023-05-01T09:20:08.558Z,30.90
2023-05-01T09:23:12.168Z,29.28
2023-05-01T09:26:15.352Z,28.58
2023-05-01T09:29:37.923Z,27.12
2023-05-01T09:32:42.573Z,26.69
2023-05-01T09:35:56.258Z,27.44
2023-05-01T09:39:02.685Z,26.83
2023-05-01T09:42:06.131Z,25.24
2023-05-01T09:45:15.876Z,23.28
2023-05-01T09:48:19.530Z,22.35
2023-05-01T09:51:30.560Z,25.25
2023-05-01T09:54:33.449Z,24.36
2023-05-01T09:57:38.349Z,24.98
2023-05-01T10:00:49.713Z,23.10
2023-05-01T10:03:56.849Z,22.54
2023-05-01T10:07:13.973Z,23.41
2023-05-01T10:10:21.513Z,23.41
2023-05-01T10:13:24.252Z,24.06
2023-05-01T10:16:31.315Z,27.55
2023-05-01T10:19:34.251Z,24.52
2023-05-01T10:22:37.310Z,23.10
2023-05-01T10:25:42.109Z,27.03
2023-05-01T10:28:48.097Z,25.55
2023-05-01T10:31:51.177Z,25.74
2023-05-01T10:35:02.200Z,25.78
2023-05-01T10:38:07.903Z,23.59
2023-05-01T10:41:11.183Z,24.48
2023-05-01T10:44:22.058Z,24.30
2023-05-01T10:47:24.980Z,27.42
2023-05-01T10:50:28.023Z,27.17
2023-05-01T10:53:31.000Z,26.79
2023-05-01T10:56:34.173Z,25.40
2023-05-01T10:59:58.904Z,26.12
2023-05-01T11:03:23.633Z,23.12
2023-05-01T11:06:27.215Z,21.77
2023-05-01T11:09:47.379Z,23.58
2023-05-01T11:12:51.845Z,24.97
2023-05-01T11:15:54.891Z,28.33
2023-05-01T11:18:57.773Z,26.33
2023-05-01T11:22:01.193Z,24.44
2023-05-01T11:25:05.282Z,26.80
2023-05-01T11:28:09.798Z,27.28
2023-05-01T11:31:18.057Z,26.22
2023-05-01T11:34:20.982Z,26.49
2023-05-01T11:37:44.460Z,27.38
2023-05-01T11:40:55.721Z,27.75
2023-05-01T11:43:59.505Z,27.68
2023-05-01T11:47:02.536Z,27.51
2023-05-01T11:50:09.822Z,27.34
2023-05-01T11:53:18.804Z,27.33
2023-05-01T11:56:26.663Z,24.53
2023-05-01T11:59:30.714Z,26.30
2023-05-01T12:02:34.034Z,24.71
2023-05-01T12:05:39.291Z,28.83
2023-05-01T12:08:51.289Z,28.42
2023-05-01T12:11:54.787Z,27.58
2023-05-01T12:14:57.760Z,29.38
2023-05-01T12:18:01.225Z,28.47
2023-05-01T12:21:04.209Z,27.14
2023-05-01T12:24:18.904Z,26.66
2023-05-01T12:27:22.530Z,27.91
2023-05-01T12:30:27.300Z,28.68
2023-05-01T12:33:31.448Z,29.33
2023-05-01T12:36:36.394Z,28.64
2023-05-01T12:39:42.666Z,27.45
2023-05-01T12:42:54.764Z,25.74
2023-05-01T12:45:57.913Z,26.18
2023-05-01T12:49:01.283Z,25.09
2023-05-01T12:52:06.481Z,26.19
2023-05-01T12:55:09.826Z,28.72
2023-05-01T12:58:13.291Z,23.86
2023-05-01T13:01:26.139Z,23.88
2023-05-01T13:04:30.023Z,27.25
2023-05-01T13:07:33.141Z,26.34
2023-05-01T13:10:36.223Z,24.65
2023-05-01T13:13:39.516Z,24.61
2023-05-01T13:16:49.186Z,24.24
2023-05-01T13:20:05.337Z,22.61
2023-05-01T13:23:13.039Z,21.88
2023-05-01T13:26:16.357Z,23.12
2023-05-01T13:29:19.226Z,23.44
2023-05-01T13:32:22.180Z,24.59
2023-05-01T13:35:27.081Z,25.93
2023-05-01T13:38:31.960Z,26.95
2023-05-01T13:41:36.034Z,25.41
2023-05-01T13:44:51.334Z,25.93
2023-05-01T13:47:55.467Z,27.64
2023-05-01T13:50:58.377Z,28.57
2023-05-01T13:54:03.528Z,29.73
2023-05-01T13:57:06.440Z,30.75
2023-05-01T14:00:14.776Z,30.82
2023-05-01T14:03:18.997Z,32.36
2023-05-01T14:06:22.013Z,32.30
2023-05-01T14:09:24.993Z,33.65
2023-05-01T14:12:32.150Z,32.62
2023-05-01T14:15:35.060Z,33.78
2023-05-01T14:18:45.920Z,33.54
2023-05-01T14:21:48.715Z,32.79
2023-05-01T14:24:51.650Z,32.67
2023-05-01T14:27:55.643Z,33.72
2023-05-01T14:30:58.696Z,34.49
2023-05-01T14:34:04.038Z,34.01
2023-05-01T14:37:07.074Z,34.45
2023-05-01T14:40:12.870Z,35.67
2023-05-01T14:43:20.756Z,36.06
2023-05-01T14:46:35.724Z,37.20
2023-05-01T14:49:42.011Z,37.37
2023-05-01T14:52:45.180Z,37.51
2023-05-01T14:55:51.231Z,39.22
2023-05-01T14:58:54.075Z,36.51
2023-05-01T15:01:57.193Z,38.06
2023-05-01T15:05:00.584Z,37.43
2023-05-01T15:08:06.765Z,37.78
2023-05-01T15:11:09.638Z,37.06
2023-05-01T15:14:12.558Z,37.38
2023-05-01T15:17:15.568Z,36.78
2023-05-01T15:20:19.077Z,37.05
2023-05-01T15:23:21.900Z,39.53
2023-05-01T15:26:24.838Z,38.28
2023-05-01T15:29:27.563Z,38.54
2023-05-01T15:32:30.389Z,39.22
2023-05-01T15:35:33.746Z,39.34
2023-05-01T15:38:36.561Z,40.01
2023-05-01T15:41:39.403Z,38.64
2023-05-01T15:44:42.300Z,39.22
2023-05-01T15:47:46.600Z,39.26
2023-05-01T15:50:49.556Z,38.88
2023-05-01T15:53:52.365Z,39.78
2023-05-01T15:56:55.275Z,39.26
2023-05-01T15:59:58.419Z,39.83
2023-05-01T16:03:04.547Z,39.61
2023-05-01T16:06:08.902Z,39.79
2023-05-01T16:09:12.991Z,40.29
2023-05-01T16:12:15.936Z,40.66
2023-05-01T16:15:19.021Z,40.85
2023-05-01T16:18:24.533Z,42.04
2023-05-01T16:21:28.584Z,42.52
2023-05-01T16:24:35.207Z,41.36
2023-05-01T16:27:44.342Z,41.41
2023-05-01T16:30:48.301Z,41.70
2023-05-01T16:33:53.380Z,42.24
2023-05-01T16:36:57.080Z,42.87
2023-05-01T16:40:00.478Z,43.65
2023-05-01T16:43:04.733Z,44.13
2023-05-01T16:46:07.529Z,44.58
2023-05-01T16:49:16.413Z,44.76
2023-05-01T16:52:19.348Z,45.69
2023-05-01T16:55:23.182Z,46.46
2023-05-01T16:58:26.763Z,46.65
2023-05-01T17:01:29.655Z,46.93
2023-05-01T17:04:32.659Z,47.38
2023-05-01T17:07:35.787Z,48.06
2023-05-01T17:10:38.757Z,48.19
2023-05-01T17:13:42.112Z,48.63
2023-05-01T17:16:45.805Z,48.98
2023-05-01T17:19:50.321Z,49.42
2023-05-01T17:22:53.192Z,49.79
2023-05-01T17:25:56.561Z,50.00
2023-05-01T17:29:01.136Z,50.38
2023-05-01T17:32:06.584Z,50.96
2023-05-01T17:35:09.939Z,51.38
2023-05-01T17:38:12.867Z,52.03
2023-05-01T17:41:15.894Z,52.39
2023-05-01T17:44:18.777Z,52.38
2023-05-01T17:47:23.179Z,52.39
2023-05-01T17:50:29.349Z,52.46
2023-05-01T17:53:32.328Z,53.11
2023-05-01T17:56:35.261Z,53.24
2023-05-01T17:59:38.632Z,53.80
2023-05-01T18:02:44.738Z,54.19
2023-05-01T18:05:47.928Z,54.77
2023-05-01T18:08:50.769Z,54.91
2023-05-01T18:11:53.547Z,55.40
2023-05-01T18:14:56.628Z,55.18
2023-05-01T18:17:59.577Z,55.60
2023-05-01T18:21:02.444Z,55.82
2023-05-01T18:24:05.441Z,55.64
2023-05-01T18:27:12.584Z,55.79
2023-05-01T18:30:17.260Z,56.57
2023-05-01T18:33:21.637Z,57.13
2023-05-01T18:36:24.836Z,57.42
2023-05-01T18:39:28.253Z,57.93
2023-05-01T18:42:31.397Z,58.25
2023-05-01T18:45:34.676Z,58.38
2023-05-01T18:48:38.272Z,58.81
2023-05-01T18:51:41.468Z,58.85
2023-05-01T18:54:45.622Z,59.13
2023-05-01T18:57:48.702Z,59.06
2023-05-01T19:00:51.779Z,59.44
2023-05-01T19:03:59.056Z,59.53
2023-05-01T19:07:02.212Z,60.19
2023-05-01T19:10:05.787Z,60.30
2023-05-01T19:13:08.705Z,60.55
2023-05-01T19:16:11.768Z,60.27
2023-05-01T19:19:14.579Z,60.34
2023-05-01T19:22:18.532Z,60.76
2023-05-01T19:25:24.012Z,60.63
2023-05-01T19:28:27.223Z,60.92
2023-05-01T19:31:30.542Z,61.21
2023-05-01T19:34:33.486Z,61.31
2023-05-01T19:37:36.822Z,61.92
2023-05-01T19:40:42.364Z,61.86
2023-05-01T19:43:45.150Z,62.37
2023-05-01T19:46:48.706Z,62.98
2023-05-01T19:49:51.819Z,63.54
2023-05-01T19:52:54.939Z,63.61
2023-05-01T19:55:58.860Z,64.44
2023-05-01T19:59:01.811Z,64.56
2023-05-01T20:02:08.311Z,64.00
2023-05-01T20:05:13.235Z,64.17
2023-05-01T20:08:16.338Z,64.73
2023-05-01T20:11:19.133Z,64.54
2023-05-01T20:14:22.190Z,64.69
2023-05-01T20:17:25.111Z,64.68
2023-05-01T20:20:28.252Z,64.78
2023-05-01T20:23:31.323Z,64.74
2023-05-01T20:26:34.255Z,64.98
2023-05-01T20:29:37.236Z,65.55
2023-05-01T20:32:44.105Z,65.11
2023-05-01T20:35:47.734Z,65.71
2023-05-01T20:38:53.221Z,66.05
2023-05-01T20:41:56.865Z,65.81
2023-05-01T20:44:59.941Z,66.19
2023-05-01T20:48:02.977Z,66.33
2023-05-01T20:51:05.833Z,66.50
2023-05-01T20:54:08.686Z,66.81
2023-05-01T20:57:11.754Z,67.05
2023-05-01T21:00:14.988Z,66.95
2023-05-01T21:03:18.031Z,67.35
2023-05-01T21:06:36.907Z,67.75
2023-05-01T21:09:49.015Z,67.97
2023-05-01T21:12:55.132Z,68.07
2023-05-01T21:15:58.117Z,68.25
2023-05-01T21:19:01.017Z,68.42
2023-05-01T21:22:15.996Z,68.43
2023-05-01T21:25:26.968Z,68.63
2023-05-01T21:28:30.323Z,68.74
2023-05-01T21:31:33.269Z,69.02
2023-05-01T21:34:36.245Z,69.14
2023-05-01T21:37:39.136Z,69.67
2023-05-01T21:40:42.827Z,69.29
2023-05-01T21:43:46.009Z,69.56
2023-05-01T21:46:48.969Z,69.66
2023-05-01T21:49:57.031Z,69.77
2023-05-01T21:53:00.172Z,69.88
2023-05-01T21:56:03.431Z,69.83
2023-05-01T21:59:06.327Z,69.59
2023-05-01T22:02:11.087Z,69.91
2023-05-01T22:05:15.693Z,69.77
2023-05-01T22:08:19.195Z,69.59
2023-05-01T22:11:24.534Z,69.99
2023-05-01T22:14:36.600Z,69.73
2023-05-01T22:17:46.925Z,70.19
2023-05-01T22:20:49.745Z,70.45
2023-05-01T22:23:52.832Z,70.91
2023-05-01T22:26:56.265Z,70.72
2023-05-01T22:29:59.763Z,71.09
2023-05-01T22:33:03.026Z,70.99
2023-05-01T22:36:07.558Z,71.33
2023-05-01T22:39:10.789Z,71.86
2023-05-01T22:42:13.534Z,72.00
2023-05-01T22:45:16.387Z,73.06
2023-05-01T22:48:19.104Z,72.00
2023-05-01T22:51:21.924Z,72.21
2023-05-01T22:54:25.034Z,72.55
2023-05-01T22:57:27.835Z,73.04
2023-05-01T23:00:31.254Z,73.58
2023-05-01T23:03:36.490Z,73.82
2023-05-01T23:06:41.103Z,73.94
2023-05-01T23:09:44.824Z,74.96
2023-05-01T23:12:48.387Z,74.89
2023-05-01T23:15:52.524Z,75.40
2023-05-01T23:18:56.111Z,76.23
2023-05-01T23:22:09.398Z,76.67
2023-05-01T23:25:14.051Z,77.24
2023-05-01T23:28:22.255Z,77.28
2023-05-01T23:31:26.175Z,77.94
2023-05-01T23:34:39.600Z,78.34
2023-05-01T23:37:42.613Z,78.65
2023-05-01T23:40:46.182Z,78.34
2023-05-01T23:43:49.253Z,77.94
2023-05-01T23:46:52.429Z,78.47
2023-05-01T23:49:55.539Z,78.44
2023-05-01T23:52:58.535Z,79.09
2023-05-01T23:56:01.456Z,79.17
2023-05-01T23:59:04.450Z,79.39
